sensor_id;sensor_type;location;lat;lon;timestamp;temperature;humidity
12761;DHT22;6444;49.742;6.114;2023-05-20T00:02:06;17.50;91.50
12761;DHT22;6444;49.742;6.114;2023-05-20T00:04:33;17.40;91.10
12761;DHT22;6444;49.742;6.114;2023-05-20T00:07:00;17.40;91.10
12761;DHT22;6444;49.742;6.114;2023-05-20T00:09:26;17.50;91.20
12761;DHT22;6444;49.742;6.114;2023-05-20T00:11:53;17.80;91.20
12761;DHT22;6444;49.742;6.114;2023-05-20T00:14:20;17.70;90.70
12761;DHT22;6444;49.742;6.114;2023-05-20T00:16:47;17.10;91.10
12761;DHT22;6444;49.742;6.114;2023-05-20T00:19:14;17.10;91.10
12761;DHT22;6444;49.742;6.114;2023-05-20T00:21:40;17.00;91.90
12761;DHT22;6444;49.742;6.114;2023-05-20T00:24:07;17.00;91.90
12761;DHT22;6444;49.742;6.114;2023-05-20T00:26:33;17.50;91.60
12761;DHT22;6444;49.742;6.114;2023-05-20T00:29:01;18.50;90.70
12761;DHT22;6444;49.742;6.114;2023-05-20T00:31:27;18.50;90.60
12761;DHT22;6444;49.742;6.114;2023-05-20T00:33:54;18.70;90.10
12761;DHT22;6444;49.742;6.114;2023-05-20T00:36:21;18.80;90.20
12761;DHT22;6444;49.742;6.114;2023-05-20T00:38:48;18.90;90.10
12761;DHT22;6444;49.742;6.114;2023-05-20T00:41:15;18.90;90.00
12761;DHT22;6444;49.742;6.114;2023-05-20T00:43:41;18.90;90.00
12761;DHT22;6444;49.742;6.114;2023-05-20T00:46:08;19.10;90.00
12761;DHT22;6444;49.742;6.114;2023-05-20T00:48:38;19.00;89.80
12761;DHT22;6444;49.742;6.114;2023-05-20T00:51:02;18.70;90.10
12761;DHT22;6444;49.742;6.114;2023-05-20T00:53:29;18.60;90.10
12761;DHT22;6444;49.742;6.114;2023-05-20T00:55:55;18.60;90.20
12761;DHT22;6444;49.742;6.114;2023-05-20T00:58:22;18.70;90.40
12761;DHT22;6444;49.742;6.114;2023-05-20T01:00:49;18.70;90.20
12761;DHT22;6444;49.742;6.114;2023-05-20T01:03:16;18.80;90.20
12761;DHT22;6444;49.742;6.114;2023-05-20T01:05:43;18.80;90.20
12761;DHT22;6444;49.742;6.114;2023-05-20T01:08:09;18.80;90.20
12761;DHT22;6444;49.742;6.114;2023-05-20T01:10:36;18.80;90.40
12761;DHT22;6444;49.742;6.114;2023-05-20T01:13:03;18.70;90.20
12761;DHT22;6444;49.742;6.114;2023-05-20T01:15:30;18.70;90.40
12761;DHT22;6444;49.742;6.114;2023-05-20T01:18:00;18.70;90.40
12761;DHT22;6444;49.742;6.114;2023-05-20T01:20:26;18.30;91.10
12761;DHT22;6444;49.742;6.114;2023-05-20T01:22:53;18.50;90.70
12761;DHT22;6444;49.742;6.114;2023-05-20T01:25:19;18.70;90.50
12761;DHT22;6444;49.742;6.114;2023-05-20T01:27:49;18.70;90.50
12761;DHT22;6444;49.742;6.114;2023-05-20T01:30:15;18.40;90.50
12761;DHT22;6444;49.742;6.114;2023-05-20T01:32:43;18.00;90.80
12761;DHT22;6444;49.742;6.114;2023-05-20T01:35:09;18.20;90.80
12761;DHT22;6444;49.742;6.114;2023-05-20T01:37:35;18.30;90.60
12761;DHT22;6444;49.742;6.114;2023-05-20T01:40:02;18.30;90.50
12761;DHT22;6444;49.742;6.114;2023-05-20T01:42:29;18.30;90.40
12761;DHT22;6444;49.742;6.114;2023-05-20T01:44:56;18.20;90.30
12761;DHT22;6444;49.742;6.114;2023-05-20T01:47:22;18.30;90.30
12761;DHT22;6444;49.742;6.114;2023-05-20T01:49:49;18.30;90.20
12761;DHT22;6444;49.742;6.114;2023-05-20T01:52:16;18.50;90.10
12761;DHT22;6444;49.742;6.114;2023-05-20T01:54:43;18.50;90.10
12761;DHT22;6444;49.742;6.114;2023-05-20T01:57:10;17.80;90.60
12761;DHT22;6444;49.742;6.114;2023-05-20T01:59:36;18.10;90.80
12761;DHT22;6444;49.742;6.114;2023-05-20T02:02:03;18.40;90.60
12761;DHT22;6444;49.742;6.114;2023-05-20T02:04:30;18.60;90.50
12761;DHT22;6444;49.742;6.114;2023-05-20T02:06:57;18.50;90.40
12761;DHT22;6444;49.742;6.114;2023-05-20T02:09:23;18.60;90.50
12761;DHT22;6444;49.742;6.114;2023-05-20T02:11:50;18.60;90.30
12761;DHT22;6444;49.742;6.114;2023-05-20T02:14:17;18.70;90.20
12761;DHT22;6444;49.742;6.114;2023-05-20T02:16:47;18.70;90.20
12761;DHT22;6444;49.742;6.114;2023-05-20T02:19:11;18.70;90.20
12761;DHT22;6444;49.742;6.114;2023-05-20T02:21:41;18.60;90.10
12761;DHT22;6444;49.742;6.114;2023-05-20T02:24:07;18.50;90.30
12761;DHT22;6444;49.742;6.114;2023-05-20T02:26:34;18.50;90.40
12761;DHT22;6444;49.742;6.114;2023-05-20T02:29:00;18.40;90.50
12761;DHT22;6444;49.742;6.114;2023-05-20T02:31:27;18.40;90.40
12761;DHT22;6444;49.742;6.114;2023-05-20T02:33:54;18.30;90.50
12761;DHT22;6444;49.742;6.114;2023-05-20T02:36:20;18.30;90.70
12761;DHT22;6444;49.742;6.114;2023-05-20T02:38:48;18.10;91.00
12761;DHT22;6444;49.742;6.114;2023-05-20T02:41:14;18.00;91.00
12761;DHT22;6444;49.742;6.114;2023-05-20T02:43:41;18.00;91.00
12761;DHT22;6444;49.742;6.114;2023-05-20T02:46:07;18.10;91.00
12761;DHT22;6444;49.742;6.114;2023-05-20T02:48:34;18.20;91.00
12761;DHT22;6444;49.742;6.114;2023-05-20T02:51:01;18.20;90.80
12761;DHT22;6444;49.742;6.114;2023-05-20T02:53:28;18.20;90.80
12761;DHT22;6444;49.742;6.114;2023-05-20T02:55:58;18.30;90.90
12761;DHT22;6444;49.742;6.114;2023-05-20T02:58:24;18.30;90.80
12761;DHT22;6444;49.742;6.114;2023-05-20T03:00:51;18.20;91.00
12761;DHT22;6444;49.742;6.114;2023-05-20T03:03:18;17.60;91.60
12761;DHT22;6444;49.742;6.114;2023-05-20T03:05:44;17.80;91.50
12761;DHT22;6444;49.742;6.114;2023-05-20T03:08:11;17.30;92.00
12761;DHT22;6444;49.742;6.114;2023-05-20T03:10:40;17.70;91.80
12761;DHT22;6444;49.742;6.114;2023-05-20T03:13:07;18.00;91.50
12761;DHT22;6444;49.742;6.114;2023-05-20T03:15:34;18.20;91.40
12761;DHT22;6444;49.742;6.114;2023-05-20T03:18:00;18.10;91.20
12761;DHT22;6444;49.742;6.114;2023-05-20T03:20:27;18.10;91.50
12761;DHT22;6444;49.742;6.114;2023-05-20T03:22:56;17.60;92.10
12761;DHT22;6444;49.742;6.114;2023-05-20T03:25:23;17.80;92.20
12761;DHT22;6444;49.742;6.114;2023-05-20T03:27:50;17.40;92.40
12761;DHT22;6444;49.742;6.114;2023-05-20T03:30:16;17.10;92.70
12761;DHT22;6444;49.742;6.114;2023-05-20T03:32:43;17.10;92.90
12761;DHT22;6444;49.742;6.114;2023-05-20T03:35:09;17.60;92.30
12761;DHT22;6444;49.742;6.114;2023-05-20T03:37:36;17.80;92.10
12761;DHT22;6444;49.742;6.114;2023-05-20T03:40:04;17.50;92.00
12761;DHT22;6444;49.742;6.114;2023-05-20T03:42:33;17.50;92.00
12761;DHT22;6444;49.742;6.114;2023-05-20T03:45:00;17.10;92.70
12761;DHT22;6444;49.742;6.114;2023-05-20T03:47:27;17.00;92.60
12761;DHT22;6444;49.742;6.114;2023-05-20T03:49:54;16.70;92.70
12761;DHT22;6444;49.742;6.114;2023-05-20T03:52:20;16.90;93.00
12761;DHT22;6444;49.742;6.114;2023-05-20T03:54:47;17.30;92.50
12761;DHT22;6444;49.742;6.114;2023-05-20T03:57:14;17.60;92.40
12761;DHT22;6444;49.742;6.114;2023-05-20T03:59:40;17.20;92.80
12761;DHT22;6444;49.742;6.114;2023-05-20T04:02:07;17.00;93.00
12761;DHT22;6444;49.742;6.114;2023-05-20T04:04:33;17.40;92.60
12761;DHT22;6444;49.742;6.114;2023-05-20T04:07:00;17.60;92.30
12761;DHT22;6444;49.742;6.114;2023-05-20T04:09:27;17.80;92.10
12761;DHT22;6444;49.742;6.114;2023-05-20T04:11:54;17.90;91.90
12761;DHT22;6444;49.742;6.114;2023-05-20T04:14:21;17.80;91.90
12761;DHT22;6444;49.742;6.114;2023-05-20T04:16:47;17.90;92.00
12761;DHT22;6444;49.742;6.114;2023-05-20T04:19:14;18.10;91.90
12761;DHT22;6444;49.742;6.114;2023-05-20T04:21:41;18.10;91.70
12761;DHT22;6444;49.742;6.114;2023-05-20T04:24:08;18.30;91.80
12761;DHT22;6444;49.742;6.114;2023-05-20T04:26:35;18.20;91.80
12761;DHT22;6444;49.742;6.114;2023-05-20T04:29:01;18.20;91.90
12761;DHT22;6444;49.742;6.114;2023-05-20T04:31:28;18.10;92.10
12761;DHT22;6444;49.742;6.114;2023-05-20T04:33:55;18.00;92.10
12761;DHT22;6444;49.742;6.114;2023-05-20T04:36:22;17.90;92.30
12761;DHT22;6444;49.742;6.114;2023-05-20T04:38:49;17.90;92.30
12761;DHT22;6444;49.742;6.114;2023-05-20T04:41:15;18.00;92.20
12761;DHT22;6444;49.742;6.114;2023-05-20T04:43:42;18.10;92.20
12761;DHT22;6444;49.742;6.114;2023-05-20T04:46:08;17.70;92.70
12761;DHT22;6444;49.742;6.114;2023-05-20T04:48:35;17.50;93.10
12761;DHT22;6444;49.742;6.114;2023-05-20T04:51:02;17.80;92.60
12761;DHT22;6444;49.742;6.114;2023-05-20T04:53:28;18.00;92.20
12761;DHT22;6444;49.742;6.114;2023-05-20T04:55:58;18.00;92.20
12761;DHT22;6444;49.742;6.114;2023-05-20T04:58:24;18.10;92.20
12761;DHT22;6444;49.742;6.114;2023-05-20T05:00:51;17.70;92.50
12761;DHT22;6444;49.742;6.114;2023-05-20T05:03:18;18.10;92.40
12761;DHT22;6444;49.742;6.114;2023-05-20T05:05:44;18.20;92.10
12761;DHT22;6444;49.742;6.114;2023-05-20T05:08:11;18.40;91.90
12761;DHT22;6444;49.742;6.114;2023-05-20T05:10:38;18.30;91.90
12761;DHT22;6444;49.742;6.114;2023-05-20T05:13:05;18.40;91.70
12761;DHT22;6444;49.742;6.114;2023-05-20T05:15:31;18.70;91.80
12761;DHT22;6444;49.742;6.114;2023-05-20T05:17:58;19.10;91.50
12761;DHT22;6444;49.742;6.114;2023-05-20T05:20:25;19.80;90.80
12761;DHT22;6444;49.742;6.114;2023-05-20T05:22:52;19.70;90.70
12761;DHT22;6444;49.742;6.114;2023-05-20T05:25:19;20.40;90.30
12761;DHT22;6444;49.742;6.114;2023-05-20T05:27:45;21.10;88.80
12761;DHT22;6444;49.742;6.114;2023-05-20T05:30:12;22.00;88.60
12761;DHT22;6444;49.742;6.114;2023-05-20T05:32:39;22.80;87.20
12761;DHT22;6444;49.742;6.114;2023-05-20T05:35:06;25.20;82.80
12761;DHT22;6444;49.742;6.114;2023-05-20T05:37:33;25.10;82.20
12761;DHT22;6444;49.742;6.114;2023-05-20T05:39:59;26.30;81.20
12761;DHT22;6444;49.742;6.114;2023-05-20T05:42:26;27.30;79.30
12761;DHT22;6444;49.742;6.114;2023-05-20T05:44:52;28.30;77.50
12761;DHT22;6444;49.742;6.114;2023-05-20T05:47:20;29.50;75.90
12761;DHT22;6444;49.742;6.114;2023-05-20T05:49:46;30.70;73.10
12761;DHT22;6444;49.742;6.114;2023-05-20T05:52:12;31.10;72.20
12761;DHT22;6444;49.742;6.114;2023-05-20T05:54:39;31.10;69.20
12761;DHT22;6444;49.742;6.114;2023-05-20T05:57:06;31.30;67.80
12761;DHT22;6444;49.742;6.114;2023-05-20T05:59:32;27.70;71.60
12761;DHT22;6444;49.742;6.114;2023-05-20T06:01:59;26.90;74.50
12761;DHT22;6444;49.742;6.114;2023-05-20T06:04:25;27.00;73.90
12761;DHT22;6444;49.742;6.114;2023-05-20T06:06:52;26.60;72.70
12761;DHT22;6444;49.742;6.114;2023-05-20T06:09:19;25.60;75.20
12761;DHT22;6444;49.742;6.114;2023-05-20T06:11:45;25.20;76.30
12761;DHT22;6444;49.742;6.114;2023-05-20T06:14:13;23.90;78.20
12761;DHT22;6444;49.742;6.114;2023-05-20T06:16:39;23.90;78.20
12761;DHT22;6444;49.742;6.114;2023-05-20T06:19:06;24.10;78.90
12761;DHT22;6444;49.742;6.114;2023-05-20T06:21:33;22.70;80.10
12761;DHT22;6444;49.742;6.114;2023-05-20T06:23:59;21.20;84.30
12761;DHT22;6444;49.742;6.114;2023-05-20T06:26:27;21.10;86.10
12761;DHT22;6444;49.742;6.114;2023-05-20T06:28:53;21.10;86.00
12761;DHT22;6444;49.742;6.114;2023-05-20T06:31:20;20.50;88.80
12761;DHT22;6444;49.742;6.114;2023-05-20T06:33:46;20.70;87.90
12761;DHT22;6444;49.742;6.114;2023-05-20T06:36:13;20.50;87.90
12761;DHT22;6444;49.742;6.114;2023-05-20T06:38:41;19.30;90.50
12761;DHT22;6444;49.742;6.114;2023-05-20T06:41:07;19.20;90.50
12761;DHT22;6444;49.742;6.114;2023-05-20T06:43:34;18.90;91.10
12761;DHT22;6444;49.742;6.114;2023-05-20T06:46:00;18.70;92.00
12761;DHT22;6444;49.742;6.114;2023-05-20T06:48:28;19.60;91.00
12761;DHT22;6444;49.742;6.114;2023-05-20T06:50:54;19.50;90.90
12761;DHT22;6444;49.742;6.114;2023-05-20T06:53:21;20.00;90.70
12761;DHT22;6444;49.742;6.114;2023-05-20T06:55:48;19.70;90.40
12761;DHT22;6444;49.742;6.114;2023-05-20T06:58:14;19.80;90.60
12761;DHT22;6444;49.742;6.114;2023-05-20T07:00:41;20.10;90.80
12761;DHT22;6444;49.742;6.114;2023-05-20T07:03:09;20.80;90.70
12761;DHT22;6444;49.742;6.114;2023-05-20T07:05:35;20.80;90.70
12761;DHT22;6444;49.742;6.114;2023-05-20T07:08:03;21.30;88.00
12761;DHT22;6444;49.742;6.114;2023-05-20T07:10:29;21.20;88.00
12761;DHT22;6444;49.742;6.114;2023-05-20T07:12:56;20.50;90.40
12761;DHT22;6444;49.742;6.114;2023-05-20T07:15:23;20.70;90.40
12761;DHT22;6444;49.742;6.114;2023-05-20T07:17:49;21.50;88.50
12761;DHT22;6444;49.742;6.114;2023-05-20T07:20:16;21.50;89.80
12761;DHT22;6444;49.742;6.114;2023-05-20T07:22:43;21.80;89.60
12761;DHT22;6444;49.742;6.114;2023-05-20T07:25:10;21.70;89.40
12761;DHT22;6444;49.742;6.114;2023-05-20T07:27:37;21.60;88.90
12761;DHT22;6444;49.742;6.114;2023-05-20T07:30:03;20.80;90.50
12761;DHT22;6444;49.742;6.114;2023-05-20T07:32:30;21.60;90.00
12761;DHT22;6444;49.742;6.114;2023-05-20T07:34:57;21.70;89.70
12761;DHT22;6444;49.742;6.114;2023-05-20T07:37:23;22.00;90.00
12761;DHT22;6444;49.742;6.114;2023-05-20T07:39:50;22.80;87.40
12761;DHT22;6444;49.742;6.114;2023-05-20T07:42:17;23.40;86.30
12761;DHT22;6444;49.742;6.114;2023-05-20T07:44:43;23.10;87.60
12761;DHT22;6444;49.742;6.114;2023-05-20T07:47:11;24.00;87.90
12761;DHT22;6444;49.742;6.114;2023-05-20T07:49:37;23.90;87.70
12761;DHT22;6444;49.742;6.114;2023-05-20T07:52:04;24.90;82.40
12761;DHT22;6444;49.742;6.114;2023-05-20T07:54:30;22.70;86.60
12761;DHT22;6444;49.742;6.114;2023-05-20T07:56:57;22.20;88.60
12761;DHT22;6444;49.742;6.114;2023-05-20T07:59:24;23.10;89.70
12761;DHT22;6444;49.742;6.114;2023-05-20T08:01:50;23.90;87.00
12761;DHT22;6444;49.742;6.114;2023-05-20T08:04:17;24.20;86.70
12761;DHT22;6444;49.742;6.114;2023-05-20T08:06:44;26.60;81.90
12761;DHT22;6444;49.742;6.114;2023-05-20T08:09:10;28.30;78.90
12761;DHT22;6444;49.742;6.114;2023-05-20T08:11:37;27.30;80.30
12761;DHT22;6444;49.742;6.114;2023-05-20T08:14:03;27.90;82.00
12761;DHT22;6444;49.742;6.114;2023-05-20T08:16:31;30.00;75.40
12761;DHT22;6444;49.742;6.114;2023-05-20T08:18:57;29.90;75.20
12761;DHT22;6444;49.742;6.114;2023-05-20T08:21:24;29.60;76.00
12761;DHT22;6444;49.742;6.114;2023-05-20T08:23:51;28.90;77.20
12761;DHT22;6444;49.742;6.114;2023-05-20T08:26:17;28.10;77.60
12761;DHT22;6444;49.742;6.114;2023-05-20T08:28:44;28.40;78.50
12761;DHT22;6444;49.742;6.114;2023-05-20T08:31:11;28.10;79.80
12761;DHT22;6444;49.742;6.114;2023-05-20T08:33:38;30.60;72.80
12761;DHT22;6444;49.742;6.114;2023-05-20T08:36:05;30.50;72.70
12761;DHT22;6444;49.742;6.114;2023-05-20T08:38:31;29.50;75.80
12761;DHT22;6444;49.742;6.114;2023-05-20T08:40:58;29.60;75.50
12761;DHT22;6444;49.742;6.114;2023-05-20T08:43:25;30.10;73.00
12761;DHT22;6444;49.742;6.114;2023-05-20T08:45:52;30.10;73.00
12761;DHT22;6444;49.742;6.114;2023-05-20T08:48:19;30.30;74.10
12761;DHT22;6444;49.742;6.114;2023-05-20T08:50:52;30.70;73.10
12761;DHT22;6444;49.742;6.114;2023-05-20T08:53:19;30.90;76.00
12761;DHT22;6444;49.742;6.114;2023-05-20T08:56:09;30.90;74.40
12761;DHT22;6444;49.742;6.114;2023-05-20T08:58:14;28.90;76.80
12761;DHT22;6444;49.742;6.114;2023-05-20T09:00:41;27.60;79.00
12761;DHT22;6444;49.742;6.114;2023-05-20T09:03:08;26.80;80.70
12761;DHT22;6444;49.742;6.114;2023-05-20T09:05:35;26.70;79.70
12761;DHT22;6444;49.742;6.114;2023-05-20T09:08:08;25.30;83.10
12761;DHT22;6444;49.742;6.114;2023-05-20T09:10:34;25.20;84.70
12761;DHT22;6444;49.742;6.114;2023-05-20T09:13:00;25.40;84.20
12761;DHT22;6444;49.742;6.114;2023-05-20T09:15:27;26.10;83.40
12761;DHT22;6444;49.742;6.114;2023-05-20T09:17:53;26.30;82.70
12761;DHT22;6444;49.742;6.114;2023-05-20T09:20:20;25.80;83.30
12761;DHT22;6444;49.742;6.114;2023-05-20T09:22:49;24.20;86.40
12761;DHT22;6444;49.742;6.114;2023-05-20T09:25:15;23.70;87.20
12761;DHT22;6444;49.742;6.114;2023-05-20T09:27:40;23.10;88.20
12761;DHT22;6444;49.742;6.114;2023-05-20T09:30:07;23.40;89.80
12761;DHT22;6444;49.742;6.114;2023-05-20T09:32:33;25.10;86.70
12761;DHT22;6444;49.742;6.114;2023-05-20T09:35:01;26.30;84.60
12761;DHT22;6444;49.742;6.114;2023-05-20T09:37:27;26.30;84.40
12761;DHT22;6444;49.742;6.114;2023-05-20T09:39:55;27.50;82.90
12761;DHT22;6444;49.742;6.114;2023-05-20T09:42:21;27.30;80.20
12761;DHT22;6444;49.742;6.114;2023-05-20T09:44:48;26.50;83.10
12761;DHT22;6444;49.742;6.114;2023-05-20T09:47:15;25.50;85.80
12761;DHT22;6444;49.742;6.114;2023-05-20T09:49:41;25.40;86.40
12761;DHT22;6444;49.742;6.114;2023-05-20T09:52:08;25.10;86.90
12761;DHT22;6444;49.742;6.114;2023-05-20T09:54:35;25.20;87.10
12761;DHT22;6444;49.742;6.114;2023-05-20T09:57:02;25.70;85.50
12761;DHT22;6444;49.742;6.114;2023-05-20T09:59:29;25.60;85.30
12761;DHT22;6444;49.742;6.114;2023-05-20T10:01:55;25.70;84.70
12761;DHT22;6444;49.742;6.114;2023-05-20T10:04:23;25.30;88.60
12761;DHT22;6444;49.742;6.114;2023-05-20T10:07:18;25.20;88.40
12761;DHT22;6444;49.742;6.114;2023-05-20T10:17:45;24.30;88.90
12761;DHT22;6444;49.742;6.114;2023-05-20T10:20:09;23.80;88.90
12761;DHT22;6444;49.742;6.114;2023-05-20T10:22:38;24.00;91.00
12761;DHT22;6444;49.742;6.114;2023-05-20T10:25:06;24.80;89.10
12761;DHT22;6444;49.742;6.114;2023-05-20T10:27:47;26.10;85.60
12761;DHT22;6444;49.742;6.114;2023-05-20T10:30:20;25.50;86.00
12761;DHT22;6444;49.742;6.114;2023-05-20T10:32:52;25.40;87.50
12761;DHT22;6444;49.742;6.114;2023-05-20T10:35:25;25.20;86.50
12761;DHT22;6444;49.742;6.114;2023-05-20T10:37:54;25.00;87.00
12761;DHT22;6444;49.742;6.114;2023-05-20T10:40:20;25.10;87.50
12761;DHT22;6444;49.742;6.114;2023-05-20T10:42:47;24.60;87.60
12761;DHT22;6444;49.742;6.114;2023-05-20T10:45:26;24.20;90.50
12761;DHT22;6444;49.742;6.114;2023-05-20T10:47:56;24.00;89.00
12761;DHT22;6444;49.742;6.114;2023-05-20T10:50:32;23.50;90.20
12761;DHT22;6444;49.742;6.114;2023-05-20T10:53:01;23.40;90.60
12761;DHT22;6444;49.742;6.114;2023-05-20T10:55:21;23.40;91.10
12761;DHT22;6444;49.742;6.114;2023-05-20T10:57:48;23.80;90.70
12761;DHT22;6444;49.742;6.114;2023-05-20T11:00:14;23.70;90.50
12761;DHT22;6444;49.742;6.114;2023-05-20T11:02:41;24.20;90.60
12761;DHT22;6444;49.742;6.114;2023-05-20T11:05:09;24.90;89.70
12761;DHT22;6444;49.742;6.114;2023-05-20T11:07:34;26.10;90.20
12761;DHT22;6444;49.742;6.114;2023-05-20T11:10:01;25.90;89.30
12761;DHT22;6444;49.742;6.114;2023-05-20T11:12:28;26.40;86.40
12761;DHT22;6444;49.742;6.114;2023-05-20T11:14:54;27.10;86.10
12761;DHT22;6444;49.742;6.114;2023-05-20T11:17:21;27.20;84.00
12761;DHT22;6444;49.742;6.114;2023-05-20T11:19:47;27.10;83.70
12761;DHT22;6444;49.742;6.114;2023-05-20T11:22:14;26.30;83.30
12761;DHT22;6444;49.742;6.114;2023-05-20T11:24:41;25.90;84.90
12761;DHT22;6444;49.742;6.114;2023-05-20T11:27:08;24.70;88.80
12761;DHT22;6444;49.742;6.114;2023-05-20T11:29:35;24.50;88.70
12761;DHT22;6444;49.742;6.114;2023-05-20T11:32:01;24.60;88.20
12761;DHT22;6444;49.742;6.114;2023-05-20T11:34:37;25.20;89.00
12761;DHT22;6444;49.742;6.114;2023-05-20T11:37:01;24.90;89.50
12761;DHT22;6444;49.742;6.114;2023-05-20T11:39:31;24.90;89.40
12761;DHT22;6444;49.742;6.114;2023-05-20T11:41:57;25.00;89.70
12761;DHT22;6444;49.742;6.114;2023-05-20T11:44:24;25.70;89.10
12761;DHT22;6444;49.742;6.114;2023-05-20T11:46:50;25.70;87.50
12761;DHT22;6444;49.742;6.114;2023-05-20T11:49:17;25.30;88.40
12761;DHT22;6444;49.742;6.114;2023-05-20T11:51:44;24.70;88.10
12761;DHT22;6444;49.742;6.114;2023-05-20T11:54:10;24.40;90.40
12761;DHT22;6444;49.742;6.114;2023-05-20T11:56:37;25.00;89.70
12761;DHT22;6444;49.742;6.114;2023-05-20T11:59:04;25.20;87.70
12761;DHT22;6444;49.742;6.114;2023-05-20T12:01:31;23.80;90.60
12761;DHT22;6444;49.742;6.114;2023-05-20T12:03:58;23.70;90.50
12761;DHT22;6444;49.742;6.114;2023-05-20T12:06:24;23.40;91.00
12761;DHT22;6444;49.742;6.114;2023-05-20T12:08:51;23.30;91.10
12761;DHT22;6444;49.742;6.114;2023-05-20T12:11:18;23.80;91.00
12761;DHT22;6444;49.742;6.114;2023-05-20T12:13:44;23.40;90.80
12761;DHT22;6444;49.742;6.114;2023-05-20T12:16:11;22.70;91.20
12761;DHT22;6444;49.742;6.114;2023-05-20T12:18:38;23.40;91.70
12761;DHT22;6444;49.742;6.114;2023-05-20T12:21:06;25.30;91.00
12761;DHT22;6444;49.742;6.114;2023-05-20T12:23:32;25.20;91.00
12761;DHT22;6444;49.742;6.114;2023-05-20T12:25:59;24.70;89.70
12761;DHT22;6444;49.742;6.114;2023-05-20T12:28:26;24.40;90.20
12761;DHT22;6444;49.742;6.114;2023-05-20T12:30:52;24.10;91.60
12761;DHT22;6444;49.742;6.114;2023-05-20T12:33:20;24.20;91.00
12761;DHT22;6444;49.742;6.114;2023-05-20T12:35:46;24.10;90.90
12761;DHT22;6444;49.742;6.114;2023-05-20T12:38:13;24.20;91.40
12761;DHT22;6444;49.742;6.114;2023-05-20T12:40:39;24.30;90.30
12761;DHT22;6444;49.742;6.114;2023-05-20T12:43:07;22.80;92.10
12761;DHT22;6444;49.742;6.114;2023-05-20T12:45:33;22.70;92.00
12761;DHT22;6444;49.742;6.114;2023-05-20T12:48:00;22.60;92.60
12761;DHT22;6444;49.742;6.114;2023-05-20T12:50:27;22.80;92.70
12761;DHT22;6444;49.742;6.114;2023-05-20T12:52:53;22.60;92.90
12761;DHT22;6444;49.742;6.114;2023-05-20T12:55:21;22.70;92.50
12761;DHT22;6444;49.742;6.114;2023-05-20T12:57:47;22.70;92.40
12761;DHT22;6444;49.742;6.114;2023-05-20T13:00:14;22.30;92.50
12761;DHT22;6444;49.742;6.114;2023-05-20T13:02:41;21.80;93.60
12761;DHT22;6444;49.742;6.114;2023-05-20T13:05:08;21.70;93.60
12761;DHT22;6444;49.742;6.114;2023-05-20T13:07:35;21.90;94.30
12761;DHT22;6444;49.742;6.114;2023-05-20T13:10:01;22.30;93.00
12761;DHT22;6444;49.742;6.114;2023-05-20T13:12:28;21.90;93.30
12761;DHT22;6444;49.742;6.114;2023-05-20T13:14:55;21.40;94.20
12761;DHT22;6444;49.742;6.114;2023-05-20T13:17:22;21.40;94.20
12761;DHT22;6444;49.742;6.114;2023-05-20T13:19:49;21.80;93.00
12761;DHT22;6444;49.742;6.114;2023-05-20T13:22:15;21.50;93.20
12761;DHT22;6444;49.742;6.114;2023-05-20T13:24:42;21.60;94.40
12761;DHT22;6444;49.742;6.114;2023-05-20T13:27:09;22.00;93.00
12761;DHT22;6444;49.742;6.114;2023-05-20T13:29:35;22.00;93.50
12761;DHT22;6444;49.742;6.114;2023-05-20T13:32:02;21.70;92.90
12761;DHT22;6444;49.742;6.114;2023-05-20T13:34:29;21.50;92.90
12761;DHT22;6444;49.742;6.114;2023-05-20T13:36:56;21.50;92.90
12761;DHT22;6444;49.742;6.114;2023-05-20T13:39:22;21.30;94.20
12761;DHT22;6444;49.742;6.114;2023-05-20T13:41:49;22.00;94.30
12761;DHT22;6444;49.742;6.114;2023-05-20T13:44:16;22.10;93.00
12761;DHT22;6444;49.742;6.114;2023-05-20T13:46:43;22.10;94.10
12761;DHT22;6444;49.742;6.114;2023-05-20T13:49:10;22.00;94.00
12761;DHT22;6444;49.742;6.114;2023-05-20T13:51:36;22.00;94.30
12761;DHT22;6444;49.742;6.114;2023-05-20T13:54:03;22.70;93.20
12761;DHT22;6444;49.742;6.114;2023-05-20T13:56:30;23.00;91.60
12761;DHT22;6444;49.742;6.114;2023-05-20T13:58:57;22.40;92.60
12761;DHT22;6444;49.742;6.114;2023-05-20T14:01:24;22.40;92.60
12761;DHT22;6444;49.742;6.114;2023-05-20T14:03:50;22.60;92.40
12761;DHT22;6444;49.742;6.114;2023-05-20T14:06:17;23.10;91.90
12761;DHT22;6444;49.742;6.114;2023-05-20T14:08:44;22.90;92.90
12761;DHT22;6444;49.742;6.114;2023-05-20T14:11:11;23.00;92.10
12761;DHT22;6444;49.742;6.114;2023-05-20T14:13:37;22.90;92.00
12761;DHT22;6444;49.742;6.114;2023-05-20T14:16:04;22.70;92.40
12761;DHT22;6444;49.742;6.114;2023-05-20T14:18:31;22.70;92.60
12761;DHT22;6444;49.742;6.114;2023-05-20T14:20:57;22.90;91.40
12761;DHT22;6444;49.742;6.114;2023-05-20T14:23:24;23.00;91.80
12761;DHT22;6444;49.742;6.114;2023-05-20T14:25:51;22.90;91.20
12761;DHT22;6444;49.742;6.114;2023-05-20T14:28:17;22.40;92.00
12761;DHT22;6444;49.742;6.114;2023-05-20T14:30:45;23.10;91.80
12761;DHT22;6444;49.742;6.114;2023-05-20T14:33:11;23.00;91.80
12761;DHT22;6444;49.742;6.114;2023-05-20T14:35:38;22.50;92.30
12761;DHT22;6444;49.742;6.114;2023-05-20T14:38:05;22.40;92.40
12761;DHT22;6444;49.742;6.114;2023-05-20T14:40:31;22.50;92.60
12761;DHT22;6444;49.742;6.114;2023-05-20T14:42:59;22.20;92.70
12761;DHT22;6444;49.742;6.114;2023-05-20T14:45:25;22.20;92.60
12761;DHT22;6444;49.742;6.114;2023-05-20T14:47:53;22.50;93.30
12761;DHT22;6444;49.742;6.114;2023-05-20T14:50:19;22.50;93.30
12761;DHT22;6444;49.742;6.114;2023-05-20T14:52:46;22.50;93.20
12761;DHT22;6444;49.742;6.114;2023-05-20T14:55:13;22.80;92.50
12761;DHT22;6444;49.742;6.114;2023-05-20T14:57:40;22.60;92.50
12761;DHT22;6444;49.742;6.114;2023-05-20T15:00:07;22.50;92.40
12761;DHT22;6444;49.742;6.114;2023-05-20T15:02:33;22.40;93.40
12761;DHT22;6444;49.742;6.114;2023-05-20T15:05:00;22.50;92.60
12761;DHT22;6444;49.742;6.114;2023-05-20T15:07:27;22.60;92.70
12761;DHT22;6444;49.742;6.114;2023-05-20T15:09:53;22.70;92.90
12761;DHT22;6444;49.742;6.114;2023-05-20T15:12:20;22.90;93.30
12761;DHT22;6444;49.742;6.114;2023-05-20T15:14:47;22.80;92.80
12761;DHT22;6444;49.742;6.114;2023-05-20T15:17:14;22.30;93.00
12761;DHT22;6444;49.742;6.114;2023-05-20T15:19:41;22.30;93.00
12761;DHT22;6444;49.742;6.114;2023-05-20T15:22:07;22.30;92.70
12761;DHT22;6444;49.742;6.114;2023-05-20T15:24:34;22.40;93.00
12761;DHT22;6444;49.742;6.114;2023-05-20T15:27:01;22.70;92.70
12761;DHT22;6444;49.742;6.114;2023-05-20T15:29:28;22.30;93.50
12761;DHT22;6444;49.742;6.114;2023-05-20T15:31:55;22.20;93.40
12761;DHT22;6444;49.742;6.114;2023-05-20T15:34:22;22.20;93.40
12761;DHT22;6444;49.742;6.114;2023-05-20T15:36:49;22.60;93.00
12761;DHT22;6444;49.742;6.114;2023-05-20T15:39:15;22.20;93.00
12761;DHT22;6444;49.742;6.114;2023-05-20T15:41:42;21.70;93.80
12761;DHT22;6444;49.742;6.114;2023-05-20T15:44:09;21.20;94.30
12761;DHT22;6444;49.742;6.114;2023-05-20T15:46:36;21.20;94.30
12761;DHT22;6444;49.742;6.114;2023-05-20T15:49:03;21.50;94.20
12761;DHT22;6444;49.742;6.114;2023-05-20T15:51:29;21.60;94.10